Time;durP1;ratioP1;P1;durP2;ratioP2;P2;SDS_P1;SDS_P2;PMS_P1;PMS_P2;Temp;Humidity;BMP_temperature;BMP_pressure;BME280_temperature;BME280_humidity;BME280_pressure;Samples;Min_cycle;Max_cycle;Signal;HPM_P1;HPM_P2
2023/04/14 00:00:57;;;;;;;9.37;2.60;;;3.40;99.90;;;;;;5030771;28;20038;-71
2023/04/14 00:03:23;;;;;;;11.60;2.43;;;3.40;99.90;;;;;;5028404;28;20041;-71
2023/04/14 00:05:48;;;;;;;11.83;2.87;;;3.40;99.90;;;;;;5005176;28;20083;-71
2023/04/14 00:08:14;;;;;;;12.07;2.13;;;3.40;99.90;;;;;;4990815;28;20453;-71
2023/04/14 00:10:40;;;;;;;13.57;2.30;;;3.30;99.90;;;;;;5013638;28;20128;-71
2023/04/14 00:13:05;;;;;;;12.07;2.03;;;3.30;99.90;;;;;;5004126;28;20095;-71
2023/04/14 00:15:31;;;;;;;11.03;2.13;;;3.30;99.90;;;;;;5020029;28;20530;-71
2023/04/14 00:17:57;;;;;;;9.30;1.90;;;3.20;99.90;;;;;;5022487;28;20038;-71
2023/04/14 00:20:23;;;;;;;11.80;2.40;;;3.20;99.90;;;;;;5020305;28;20033;-71
2023/04/14 00:22:48;;;;;;;10.10;2.87;;;3.20;99.90;;;;;;5029453;28;20049;-71
2023/04/14 00:25:14;;;;;;;13.80;2.30;;;3.10;99.90;;;;;;5029685;28;20052;-71
2023/04/14 00:27:40;;;;;;;9.73;2.37;;;3.10;99.90;;;;;;5012957;28;20089;-71
2023/04/14 00:30:06;;;;;;;9.13;2.27;;;3.10;99.90;;;;;;5008990;28;20052;-71
2023/04/14 00:32:32;;;;;;;9.63;1.95;;;3.00;99.90;;;;;;5014254;28;20041;-71
2023/04/14 00:34:59;;;;;;;11.57;2.47;;;3.00;99.90;;;;;;5013825;28;20516;-71
2023/04/14 00:37:25;;;;;;;9.77;2.67;;;2.90;99.90;;;;;;5013559;28;20046;-71
2023/04/14 00:39:50;;;;;;;11.90;2.78;;;2.90;99.90;;;;;;5017322;28;20072;-71
2023/04/14 00:42:16;;;;;;;10.60;2.47;;;2.90;99.90;;;;;;5013373;28;20069;-71
2023/04/14 00:44:42;;;;;;;8.40;1.97;;;2.90;99.90;;;;;;5010588;28;20060;-71
2023/04/14 00:47:08;;;;;;;11.80;2.00;;;2.90;99.90;;;;;;5013224;28;20092;-71
2023/04/14 00:49:36;;;;;;;10.85;2.35;;;2.90;99.90;;;;;;5009222;28;20050;-71
2023/04/14 00:52:02;;;;;;;13.15;3.13;;;2.90;99.90;;;;;;5011475;28;20045;-71
2023/04/14 00:54:30;;;;;;;9.95;2.05;;;2.90;99.90;;;;;;5010675;28;20418;-71
2023/04/14 00:56:56;;;;;;;10.60;2.08;;;2.90;99.90;;;;;;5015453;28;20042;-71
2023/04/14 00:59:22;;;;;;;8.77;2.38;;;2.90;99.90;;;;;;5004897;28;20048;-71
2023/04/14 01:01:48;;;;;;;7.90;2.67;;;2.80;99.90;;;;;;4999639;28;20049;-71
2023/04/14 01:04:15;;;;;;;12.60;3.10;;;2.90;99.90;;;;;;5004679;28;20038;-71
2023/04/14 01:06:40;;;;;;;8.88;2.35;;;2.90;99.90;;;;;;5001157;28;20468;-71
2023/04/14 01:09:08;;;;;;;12.87;2.40;;;2.90;99.90;;;;;;5029080;28;20136;-71
2023/04/14 01:11:39;;;;;;;16.58;2.83;;;2.90;99.90;;;;;;5027747;28;20042;-71
2023/04/14 01:14:09;;;;;;;11.05;2.42;;;2.90;99.90;;;;;;5029066;28;20049;-71
2023/04/14 01:16:49;;;;;;;10.63;2.10;;;2.90;99.90;;;;;;5028594;28;20072;-71
2023/04/14 01:19:26;;;;;;;10.27;2.60;;;2.90;99.90;;;;;;5027274;28;20041;-71
2023/04/14 01:21:56;;;;;;;13.73;2.60;;;2.90;99.90;;;;;;5007543;28;20412;-71
2023/04/14 01:24:58;;;;;;;10.30;2.13;;;2.90;99.90;;;;;;5028193;28;20108;-71
2023/04/14 01:27:58;;;;;;;10.93;2.70;;;2.80;99.90;;;;;;5026123;28;20045;-71
2023/04/14 01:30:40;;;;;;;10.13;2.30;;;2.80;99.90;;;;;;4991826;28;20118;-71
2023/04/14 01:33:10;;;;;;;11.35;2.60;;;2.70;99.90;;;;;;5028610;28;20046;-71
2023/04/14 01:35:50;;;;;;;11.57;2.58;;;2.70;99.90;;;;;;5028126;28;20050;-71
2023/04/14 01:38:26;;;;;;;12.48;2.33;;;2.60;99.90;;;;;;5028504;28;20099;-71
2023/04/14 01:40:56;;;;;;;7.38;2.50;;;2.60;99.90;;;;;;5004265;28;20050;-71
2023/04/14 01:43:26;;;;;;;12.52;2.58;;;2.50;99.90;;;;;;5028000;28;20053;-71
2023/04/14 01:45:56;;;;;;;7.53;2.22;;;2.50;99.90;;;;;;5026870;28;20144;-71
2023/04/14 01:48:24;;;;;;;11.95;2.33;;;2.50;99.90;;;;;;5027534;28;20434;-71
2023/04/14 01:50:50;;;;;;;10.48;2.45;;;2.50;99.90;;;;;;5010423;28;20077;-71
2023/04/14 01:53:17;;;;;;;10.93;2.40;;;2.50;99.90;;;;;;5010286;28;20556;-71
2023/04/14 01:55:44;;;;;;;10.75;2.85;;;2.50;99.90;;;;;;5027071;28;20037;-71
2023/04/14 01:58:11;;;;;;;11.95;2.67;;;2.60;99.90;;;;;;5021429;28;20080;-71
2023/04/14 02:00:39;;;;;;;11.75;2.53;;;2.60;99.90;;;;;;5024604;28;20478;-71
2023/04/14 02:03:05;;;;;;;14.77;2.88;;;2.60;99.90;;;;;;5021482;28;20048;-71
2023/04/14 02:05:35;;;;;;;10.90;3.25;;;2.70;99.90;;;;;;5028159;28;20049;-71
2023/04/14 02:08:05;;;;;;;13.70;3.75;;;2.70;99.90;;;;;;5027070;28;20084;-71
2023/04/14 02:10:31;;;;;;;12.00;3.30;;;2.60;99.90;;;;;;5027989;28;20123;-71
2023/04/14 02:12:58;;;;;;;12.95;2.80;;;2.60;99.90;;;;;;5014290;28;20168;-71
2023/04/14 02:15:25;;;;;;;13.98;2.75;;;2.50;99.90;;;;;;5009595;28;20041;-71
2023/04/14 02:17:51;;;;;;;8.02;2.25;;;2.50;99.90;;;;;;5008207;28;20575;-71
2023/04/14 02:20:20;;;;;;;15.45;2.22;;;2.40;99.90;;;;;;5004926;28;20176;-71
2023/04/14 02:22:46;;;;;;;12.20;2.58;;;2.30;99.90;;;;;;4994005;28;20127;-71
2023/04/14 02:25:12;;;;;;;9.05;2.17;;;2.30;99.90;;;;;;5027402;28;20497;-71
2023/04/14 02:27:59;;;;;;;11.35;2.70;;;2.20;99.90;;;;;;5023143;28;20116;-71
2023/04/14 02:30:30;;;;;;;10.10;2.42;;;2.20;99.90;;;;;;4996696;28;20057;-71
2023/04/14 02:33:02;;;;;;;7.22;2.42;;;2.10;99.90;;;;;;4999621;28;20046;-71
2023/04/14 02:35:30;;;;;;;11.27;2.10;;;2.10;99.90;;;;;;5006105;28;20504;-71
2023/04/14 02:38:07;;;;;;;8.85;2.40;;;2.10;99.90;;;;;;5027784;28;20060;-71
2023/04/14 02:40:37;;;;;;;12.90;3.30;;;2.10;99.90;;;;;;5015158;28;20064;-71
2023/04/14 02:43:11;;;;;;;16.48;2.40;;;2.10;99.90;;;;;;5025461;28;20104;-71
2023/04/14 02:45:39;;;;;;;13.60;2.50;;;2.00;99.90;;;;;;5024738;28;20092;-71
2023/04/14 02:48:10;;;;;;;11.50;2.80;;;2.10;99.90;;;;;;5003556;28;20120;-71
2023/04/14 02:50:37;;;;;;;8.05;2.63;;;2.10;99.90;;;;;;4994787;28;20511;-71
2023/04/14 02:53:04;;;;;;;10.75;2.30;;;2.10;99.90;;;;;;5010380;28;20493;-71
2023/04/14 02:55:31;;;;;;;10.75;2.75;;;2.10;99.90;;;;;;4998629;28;20050;-71
2023/04/14 02:57:58;;;;;;;8.13;2.30;;;2.20;99.90;;;;;;5010765;28;20110;-71
2023/04/14 03:00:26;;;;;;;8.80;2.35;;;2.10;99.90;;;;;;5010734;28;20145;-71
2023/04/14 03:02:53;;;;;;;12.00;2.45;;;2.10;99.90;;;;;;5003532;28;20044;-71
2023/04/14 03:05:20;;;;;;;7.68;2.50;;;2.10;99.90;;;;;;5009129;28;20053;-71
2023/04/14 03:07:46;;;;;;;10.93;2.28;;;2.00;99.90;;;;;;5010558;28;20414;-71
2023/04/14 03:10:13;;;;;;;11.93;2.40;;;2.00;99.90;;;;;;5010520;28;20040;-71
2023/04/14 03:12:40;;;;;;;10.38;2.10;;;1.90;99.90;;;;;;5010601;28;20719;-71
2023/04/14 03:15:07;;;;;;;9.07;2.30;;;1.90;99.90;;;;;;4992318;28;20052;-71
2023/04/14 03:17:34;;;;;;;10.93;2.78;;;1.80;99.90;;;;;;4990792;28;20477;-71
2023/04/14 03:20:01;;;;;;;11.98;2.40;;;1.80;99.90;;;;;;4998077;28;20037;-71
2023/04/14 03:22:28;;;;;;;7.50;2.10;;;1.80;99.90;;;;;;4975000;28;20049;-71
2023/04/14 03:24:57;;;;;;;10.23;2.30;;;1.80;99.90;;;;;;5014919;28;20129;-71
2023/04/14 03:27:28;;;;;;;7.63;2.28;;;1.80;99.90;;;;;;5009693;28;20047;-71
2023/04/14 03:30:00;;;;;;;8.55;2.40;;;1.80;99.90;;;;;;4994254;28;20045;-71
2023/04/14 03:32:32;;;;;;;10.40;2.70;;;1.80;99.90;;;;;;5006421;28;20073;-71
2023/04/14 03:35:00;;;;;;;9.95;2.80;;;1.70;99.90;;;;;;5018139;28;20128;-71
2023/04/14 03:37:27;;;;;;;8.25;2.67;;;1.70;99.90;;;;;;5009486;28;20048;-71
2023/04/14 03:39:59;;;;;;;10.95;2.47;;;1.70;99.90;;;;;;5010475;28;20117;-71
2023/04/14 03:42:27;;;;;;;7.57;2.53;;;1.70;99.90;;;;;;4997874;28;20042;-71
2023/04/14 03:44:55;;;;;;;13.27;3.33;;;1.60;99.90;;;;;;4992508;28;20033;-71
2023/04/14 03:47:23;;;;;;;13.75;2.88;;;1.60;99.90;;;;;;5024035;28;20057;-71
2023/04/14 03:49:51;;;;;;;10.15;2.42;;;1.50;99.90;;;;;;5026716;28;20365;-71
2023/04/14 03:52:19;;;;;;;9.68;2.70;;;1.50;99.90;;;;;;5014758;28;20104;-71
2023/04/14 03:54:48;;;;;;;12.95;2.63;;;1.50;99.90;;;;;;5019595;28;20044;-71
2023/04/14 03:57:16;;;;;;;10.43;2.78;;;1.40;99.90;;;;;;5023549;28;20049;-71
2023/04/14 03:59:45;;;;;;;11.70;2.90;;;1.40;99.90;;;;;;5030230;28;20041;-71
2023/04/14 04:02:11;;;;;;;18.17;3.00;;;1.40;99.90;;;;;;5030005;28;20077;-71
2023/04/14 04:04:37;;;;;;;11.88;3.20;;;1.40;99.90;;;;;;5029641;28;20489;-71
2023/04/14 04:07:06;;;;;;;9.70;2.65;;;1.50;99.90;;;;;;5001189;28;20037;-71
2023/04/14 04:09:33;;;;;;;10.27;2.65;;;1.60;99.90;;;;;;5009113;28;20102;-71
2023/04/14 04:12:02;;;;;;;12.60;3.28;;;1.60;99.90;;;;;;5019042;28;20107;-71
2023/04/14 04:14:29;;;;;;;12.55;2.67;;;1.70;99.90;;;;;;5015404;28;20101;-70
2023/04/14 04:16:58;;;;;;;11.55;3.30;;;1.70;99.90;;;;;;5011010;28;20132;-70
2023/04/14 04:19:25;;;;;;;11.88;3.40;;;1.80;99.90;;;;;;5025408;28;20053;-70
2023/04/14 04:21:56;;;;;;;11.40;2.92;;;1.80;99.90;;;;;;5014940;28;20124;-70
2023/04/14 04:24:25;;;;;;;11.10;3.30;;;1.90;99.90;;;;;;5023167;28;20144;-70
2023/04/14 04:26:53;;;;;;;7.95;2.70;;;1.90;99.90;;;;;;5015273;28;20096;-70
2023/04/14 04:29:20;;;;;;;14.57;3.28;;;1.90;99.90;;;;;;5020141;28;20052;-70
2023/04/14 04:31:46;;;;;;;12.40;3.00;;;2.00;99.90;;;;;;5013321;28;20148;-70
2023/04/14 04:34:15;;;;;;;15.10;2.90;;;2.00;99.90;;;;;;5025240;28;20053;-70
2023/04/14 04:36:42;;;;;;;16.30;3.97;;;2.00;99.90;;;;;;5012790;28;20076;-70
2023/04/14 04:39:08;;;;;;;14.55;3.20;;;2.00;99.90;;;;;;5025016;28;20318;-70
2023/04/14 04:41:33;;;;;;;11.27;2.67;;;2.00;99.90;;;;;;5037241;28;20041;-70
2023/04/14 04:44:00;;;;;;;9.40;3.00;;;2.10;99.90;;;;;;5014669;28;20120;-70
2023/04/14 04:46:41;;;;;;;19.38;3.00;;;2.00;99.90;;;;;;5012719;28;20053;-70
2023/04/14 04:49:06;;;;;;;10.65;2.58;;;2.10;99.90;;;;;;5014922;28;20049;-70
2023/04/14 04:51:32;;;;;;;10.63;2.53;;;2.10;99.90;;;;;;5029634;28;20068;-70
2023/04/14 04:53:58;;;;;;;7.63;2.37;;;2.00;99.90;;;;;;5022813;28;20056;-71
2023/04/14 04:56:25;;;;;;;8.40;2.43;;;2.00;99.90;;;;;;4993407;28;20081;-71
2023/04/14 04:58:51;;;;;;;12.57;2.80;;;2.00;99.90;;;;;;5028939;28;20489;-71
2023/04/14 05:01:18;;;;;;;8.77;2.73;;;2.10;99.90;;;;;;5011820;28;20065;-70
2023/04/14 05:03:44;;;;;;;6.97;2.50;;;2.10;99.90;;;;;;5033639;28;20037;-70
2023/04/14 05:06:11;;;;;;;10.25;2.47;;;2.10;99.90;;;;;;5009004;28;20164;-70
2023/04/14 05:08:37;;;;;;;12.40;2.70;;;2.10;99.90;;;;;;5005938;28;20045;-70
2023/04/14 05:11:03;;;;;;;11.70;2.40;;;2.10;99.90;;;;;;5021262;28;20044;-70
2023/04/14 05:13:29;;;;;;;10.60;2.55;;;2.10;99.90;;;;;;5021578;28;20525;-70
2023/04/14 05:16:05;;;;;;;6.10;2.40;;;2.20;99.90;;;;;;5008028;28;20048;-70
2023/04/14 05:18:31;;;;;;;12.63;2.80;;;2.20;99.90;;;;;;5004063;28;20052;-71
2023/04/14 05:21:05;;;;;;;11.25;3.15;;;2.20;99.90;;;;;;5005083;28;20029;-71
2023/04/14 05:23:35;;;;;;;7.97;2.95;;;2.20;99.90;;;;;;5019888;28;20056;-71
2023/04/14 05:26:01;;;;;;;11.82;2.75;;;2.30;99.90;;;;;;5022178;28;20038;-71
2023/04/14 05:28:27;;;;;;;8.48;2.63;;;2.30;99.90;;;;;;5022058;28;20041;-71
2023/04/14 05:30:53;;;;;;;8.97;2.70;;;2.40;99.90;;;;;;5024520;28;20048;-71
2023/04/14 05:33:18;;;;;;;9.33;2.63;;;2.40;99.90;;;;;;5006803;28;20048;-71
2023/04/14 05:35:45;;;;;;;9.18;2.65;;;2.50;99.90;;;;;;5023864;28;20822;-71
2023/04/14 05:38:14;;;;;;;11.10;2.65;;;2.50;99.90;;;;;;5022242;28;20072;-71
2023/04/14 05:40:40;;;;;;;11.13;2.72;;;2.60;99.90;;;;;;5021601;28;20046;-71
2023/04/14 05:43:06;;;;;;;8.48;2.90;;;2.70;99.90;;;;;;5024111;28;20043;-71
2023/04/14 05:45:32;;;;;;;7.07;3.17;;;2.80;99.90;;;;;;5016681;28;20058;-71
2023/04/14 05:47:57;;;;;;;7.20;2.63;;;2.80;99.90;;;;;;4973032;28;20493;-71
2023/04/14 05:50:23;;;;;;;11.20;2.87;;;2.90;99.90;;;;;;4989672;28;20049;-71
2023/04/14 05:52:50;;;;;;;15.60;3.47;;;3.00;99.90;;;;;;4987305;28;20049;-71
2023/04/14 05:55:15;;;;;;;10.00;3.65;;;3.00;99.90;;;;;;5021098;28;20049;-71
2023/04/14 05:57:41;;;;;;;8.27;2.90;;;3.10;99.90;;;;;;4987283;28;20050;-71
2023/04/14 06:00:08;;;;;;;10.00;3.37;;;3.20;99.90;;;;;;4968252;28;20299;-71
2023/04/14 06:02:34;;;;;;;9.52;3.05;;;3.20;99.90;;;;;;4989723;28;20037;-71
2023/04/14 06:05:00;;;;;;;9.18;3.22;;;3.30;99.90;;;;;;5006342;28;20026;-71
2023/04/14 06:07:26;;;;;;;8.98;3.72;;;3.40;99.90;;;;;;4978145;28;20088;-71
2023/04/14 06:09:52;;;;;;;16.38;4.15;;;3.40;99.90;;;;;;4981189;28;20112;-71
2023/04/14 06:12:18;;;;;;;14.17;4.70;;;3.40;99.90;;;;;;4981767;28;20570;-71
2023/04/14 06:14:44;;;;;;;8.88;4.60;;;3.50;99.90;;;;;;4964797;28;20040;-71
2023/04/14 06:17:09;;;;;;;13.83;4.37;;;3.60;99.90;;;;;;4981270;28;20042;-71
2023/04/14 06:19:35;;;;;;;13.03;4.50;;;3.70;99.90;;;;;;5001637;28;20049;-71
2023/04/14 06:22:01;;;;;;;11.67;4.57;;;3.70;99.90;;;;;;4981477;28;20042;-71
2023/04/14 06:24:27;;;;;;;12.40;5.20;;;3.80;99.90;;;;;;4988674;28;20045;-71
2023/04/14 06:26:52;;;;;;;8.97;4.03;;;3.90;99.90;;;;;;4973708;28;20056;-71
2023/04/14 06:29:18;;;;;;;11.23;4.70;;;3.90;99.90;;;;;;4990526;28;20100;-71
2023/04/14 06:31:44;;;;;;;10.47;4.60;;;4.00;99.90;;;;;;4983462;28;20773;-71
2023/04/14 06:34:09;;;;;;;19.90;5.47;;;4.10;99.90;;;;;;5001087;28;20038;-71
2023/04/14 06:36:35;;;;;;;8.90;4.30;;;4.20;99.90;;;;;;4990346;28;20461;-71
2023/04/14 06:39:01;;;;;;;10.97;5.40;;;4.30;99.90;;;;;;4992062;28;20037;-71
2023/04/14 06:41:27;;;;;;;11.37;5.17;;;4.40;99.90;;;;;;4981027;28;20053;-71
2023/04/14 06:43:53;;;;;;;10.63;4.83;;;4.50;99.90;;;;;;4974811;28;20038;-71
2023/04/14 06:46:18;;;;;;;11.43;5.40;;;4.70;99.90;;;;;;5007747;28;20076;-71
2023/04/14 06:48:44;;;;;;;9.27;4.63;;;4.90;99.90;;;;;;5010751;28;20085;-71
2023/04/14 06:51:11;;;;;;;13.63;4.77;;;5.00;99.90;;;;;;5010595;28;20049;-71
2023/04/14 06:53:40;;;;;;;10.43;4.55;;;5.10;99.90;;;;;;5012951;28;20227;-71
2023/04/14 06:56:06;;;;;;;10.88;4.85;;;5.20;99.90;;;;;;5014942;28;20068;-71
2023/04/14 06:58:32;;;;;;;11.93;4.57;;;5.30;99.90;;;;;;5010882;28;20491;-71
2023/04/14 07:01:00;;;;;;;14.15;5.10;;;5.40;99.90;;;;;;5018704;28;20051;-71
2023/04/14 07:03:27;;;;;;;11.15;5.15;;;5.50;99.90;;;;;;5023422;28;20037;-71
2023/04/14 07:05:53;;;;;;;12.98;4.97;;;5.60;99.90;;;;;;5023439;28;20054;-71
2023/04/14 07:08:20;;;;;;;14.18;5.35;;;5.70;99.90;;;;;;4994149;28;20519;-71
2023/04/14 07:10:46;;;;;;;10.75;5.15;;;5.80;99.90;;;;;;5011701;28;20705;-71
2023/04/14 07:13:12;;;;;;;13.80;5.13;;;5.90;99.90;;;;;;5008382;28;20037;-71
2023/04/14 07:15:38;;;;;;;13.35;5.30;;;6.10;99.90;;;;;;5024987;28;20056;-71
2023/04/14 07:18:04;;;;;;;15.50;5.40;;;6.20;99.90;;;;;;5021905;28;20037;-71
2023/04/14 07:20:31;;;;;;;14.98;5.40;;;6.30;99.90;;;;;;5020563;28;20103;-71
2023/04/14 07:22:56;;;;;;;12.38;5.22;;;6.50;99.90;;;;;;5005223;28;20089;-71
2023/04/14 07:25:22;;;;;;;11.40;4.57;;;6.70;99.90;;;;;;5002640;28;20485;-71
2023/04/14 07:27:48;;;;;;;14.73;5.07;;;6.80;99.90;;;;;;5010335;28;20045;-71
2023/04/14 07:30:17;;;;;;;14.90;6.13;;;7.00;99.90;;;;;;5012641;28;20049;-71
2023/04/14 07:32:42;;;;;;;12.13;5.60;;;7.10;99.90;;;;;;4994137;28;20468;-71
2023/04/14 07:35:09;;;;;;;11.07;4.60;;;7.30;99.90;;;;;;5014382;28;20077;-71
2023/04/14 07:37:35;;;;;;;10.80;4.07;;;7.40;99.90;;;;;;5014864;28;20153;-71
2023/04/14 07:40:02;;;;;;;13.40;4.83;;;7.40;99.90;;;;;;5017027;28;20057;-71
2023/04/14 07:42:28;;;;;;;9.25;3.72;;;7.50;99.90;;;;;;5013946;28;20048;-71
2023/04/14 07:44:54;;;;;;;10.10;3.60;;;7.70;99.90;;;;;;5013160;28;20124;-71
2023/04/14 07:47:20;;;;;;;12.68;3.88;;;7.80;99.90;;;;;;5000767;28;20543;-71
2023/04/14 07:49:45;;;;;;;9.73;2.93;;;7.90;99.90;;;;;;5013673;28;20160;-71
2023/04/14 07:52:11;;;;;;;12.40;3.20;;;8.00;99.90;;;;;;4998092;28;20556;-71
2023/04/14 07:54:37;;;;;;;12.10;3.50;;;8.10;99.90;;;;;;5024691;28;20041;-71
2023/04/14 07:57:07;;;;;;;15.07;3.60;;;8.20;99.90;;;;;;5018194;28;20501;-72
2023/04/14 07:59:33;;;;;;;11.85;3.53;;;8.30;99.90;;;;;;5001517;28;20036;-71
2023/04/14 08:01:58;;;;;;;10.83;3.13;;;8.30;99.90;;;;;;5014524;28;20124;-72
2023/04/14 08:04:25;;;;;;;12.00;3.53;;;8.40;99.90;;;;;;5011807;28;20203;-72
2023/04/14 08:06:51;;;;;;;14.35;4.18;;;8.60;99.90;;;;;;5011578;28;20124;-72
2023/04/14 08:09:16;;;;;;;13.33;3.80;;;8.70;99.90;;;;;;5025409;28;20393;-72
2023/04/14 08:11:42;;;;;;;14.90;3.53;;;8.80;99.90;;;;;;5013076;28;20124;-72
2023/04/14 08:14:08;;;;;;;11.63;3.87;;;8.90;99.90;;;;;;5004608;28;20143;-72
2023/04/14 08:16:35;;;;;;;15.87;3.53;;;9.10;99.90;;;;;;5023155;28;20076;-72
2023/04/14 08:19:02;;;;;;;14.07;3.92;;;9.20;99.90;;;;;;5026972;28;20053;-72
2023/04/14 08:21:28;;;;;;;15.00;3.97;;;9.30;99.90;;;;;;5013190;28;20030;-72
2023/04/14 08:23:53;;;;;;;12.63;3.90;;;9.30;99.90;;;;;;5019493;28;20416;-72
2023/04/14 08:26:20;;;;;;;13.63;4.40;;;9.40;99.90;;;;;;5024171;28;20048;-72
2023/04/14 08:28:45;;;;;;;14.27;3.78;;;9.50;99.90;;;;;;5016681;28;20057;-72
2023/04/14 08:31:11;;;;;;;18.43;4.93;;;9.60;99.90;;;;;;5034551;28;20401;-72
2023/04/14 08:33:37;;;;;;;16.27;4.53;;;9.80;99.90;;;;;;5013140;28;20191;-72
2023/04/14 08:36:03;;;;;;;9.27;3.60;;;9.90;99.90;;;;;;5015549;28;20599;-72
2023/04/14 08:38:29;;;;;;;11.45;4.13;;;10.00;99.90;;;;;;5017188;28;20080;-72
2023/04/14 08:40:56;;;;;;;11.37;3.97;;;10.10;99.90;;;;;;5011439;28;21295;-72
2023/04/14 08:43:22;;;;;;;15.02;4.90;;;10.10;99.90;;;;;;5012802;28;20034;-72
2023/04/14 08:45:50;;;;;;;13.73;4.10;;;10.20;99.90;;;;;;5006053;28;20062;-72
2023/04/14 08:48:19;;;;;;;13.25;4.15;;;10.40;99.90;;;;;;4993095;28;20719;-72
2023/04/14 08:51:12;;;;;;;18.60;5.00;;;10.50;99.90;;;;;;4965365;28;20521;-73
2023/04/14 08:53:43;;;;;;;15.38;4.57;;;10.50;99.90;;;;;;4992197;28;20129;-72
2023/04/14 08:56:12;;;;;;;15.32;6.18;;;10.60;99.90;;;;;;4977668;28;20088;-72
2023/04/14 08:58:38;;;;;;;17.35;7.38;;;10.70;99.90;;;;;;4985549;28;20048;-72
2023/04/14 09:01:04;;;;;;;21.33;8.32;;;10.80;99.90;;;;;;4991859;28;20040;-73
2023/04/14 09:03:30;;;;;;;24.33;9.63;;;10.80;99.90;;;;;;4986164;28;20390;-73
2023/04/14 09:05:56;;;;;;;27.07;11.97;;;10.90;99.90;;;;;;4993457;28;20446;-73
2023/04/14 09:08:22;;;;;;;28.98;13.07;;;11.00;99.90;;;;;;4980347;28;20046;-73
2023/04/14 09:10:49;;;;;;;30.30;13.40;;;11.10;99.90;;;;;;4991977;28;20080;-73
2023/04/14 09:13:16;;;;;;;31.58;13.40;;;11.10;99.90;;;;;;4976574;28;20710;-72
2023/04/14 09:15:42;;;;;;;28.48;11.88;;;11.20;99.90;;;;;;4993545;28;20045;-72
2023/04/14 09:18:10;;;;;;;25.55;10.20;;;11.30;99.90;;;;;;4981752;28;20045;-72
2023/04/14 09:20:36;;;;;;;23.02;9.63;;;11.40;99.90;;;;;;4968870;28;20046;-72
2023/04/14 09:23:03;;;;;;;22.42;7.82;;;11.50;99.90;;;;;;4987643;28;20448;-72
2023/04/14 09:25:29;;;;;;;17.63;5.97;;;11.50;99.90;;;;;;4977045;28;20180;-72
2023/04/14 09:27:55;;;;;;;14.80;6.07;;;11.60;99.90;;;;;;4985507;28;20447;-72
2023/04/14 09:30:21;;;;;;;12.70;4.27;;;11.70;99.90;;;;;;4974167;28;20053;-72
2023/04/14 09:32:52;;;;;;;10.03;2.50;;;11.70;99.90;;;;;;4992677;28;20438;-72
2023/04/14 09:35:18;;;;;;;7.23;2.27;;;11.90;99.90;;;;;;4984544;28;20284;-72
2023/04/14 09:37:45;;;;;;;4.03;1.10;;;12.00;99.90;;;;;;4962904;28;20277;-72
2023/04/14 09:40:29;;;;;;;4.57;1.10;;;12.00;99.90;;;;;;4983701;28;20409;-72
2023/04/14 09:42:56;;;;;;;7.23;1.20;;;12.10;99.90;;;;;;4971808;28;20292;-73
2023/04/14 09:45:39;;;;;;;4.67;0.97;;;12.20;99.90;;;;;;4995631;28;20359;-73
2023/04/14 09:48:06;;;;;;;5.07;1.20;;;12.20;99.90;;;;;;5020650;28;20284;-73
2023/04/14 09:50:32;;;;;;;3.20;1.00;;;12.20;99.90;;;;;;5005330;28;20279;-73
2023/04/14 09:53:03;;;;;;;4.23;0.53;;;12.30;99.90;;;;;;5011276;28;20276;-73
2023/04/14 09:55:28;;;;;;;5.40;0.80;;;12.40;99.90;;;;;;5017559;28;20328;-72
2023/04/14 09:57:54;;;;;;;3.00;0.70;;;12.40;99.90;;;;;;5011386;28;20288;-72
2023/04/14 10:00:21;;;;;;;7.43;0.90;;;12.50;99.90;;;;;;5023884;28;20065;-72
2023/04/14 10:02:54;;;;;;;4.03;0.60;;;12.60;99.90;;;;;;5021274;28;20037;-72
2023/04/14 10:05:25;;;;;;;8.10;1.43;;;12.70;99.90;;;;;;5011857;28;20692;-72
2023/04/14 10:07:50;;;;;;;6.43;0.90;;;12.70;99.90;;;;;;5003895;28;20771;-71
2023/04/14 10:10:16;;;;;;;4.30;0.67;;;12.80;99.90;;;;;;5022366;28;20287;-72
2023/04/14 10:12:43;;;;;;;10.67;1.43;;;12.80;99.50;;;;;;5013024;28;20398;-73
2023/04/14 10:15:10;;;;;;;5.43;1.00;;;12.90;94.10;;;;;;5026938;28;20109;-73
2023/04/14 10:17:38;;;;;;;4.17;0.97;;;13.00;90.60;;;;;;5025803;28;20370;-73
2023/04/14 10:20:05;;;;;;;6.40;0.90;;;13.00;88.50;;;;;;5017223;28;20284;-72
2023/04/14 10:22:31;;;;;;;3.43;1.07;;;13.00;77.10;;;;;;5020785;28;20292;-72
2023/04/14 10:25:00;;;;;;;6.43;0.90;;;13.10;80.00;;;;;;5021468;28;20691;-70
2023/04/14 10:27:28;;;;;;;5.63;1.17;;;13.20;77.10;;;;;;5017780;28;20288;-70
2023/04/14 10:29:54;;;;;;;4.63;0.80;;;13.40;74.80;;;;;;5023292;28;20280;-72
2023/04/14 10:32:21;;;;;;;2.97;0.93;;;13.50;75.10;;;;;;5011625;28;20295;-71
2023/04/14 10:35:19;;;;;;;4.40;0.63;;;13.70;71.50;;;;;;5018744;28;20273;-71
2023/04/14 10:37:51;;;;;;;7.60;1.27;;;13.90;71.90;;;;;;5023309;28;20367;-71
2023/04/14 10:40:17;;;;;;;3.27;0.70;;;13.90;65.90;;;;;;5020624;28;20407;-70
2023/04/14 10:42:54;;;;;;;4.00;0.70;;;14.00;68.90;;;;;;5028413;28;20355;-71
2023/04/14 10:45:20;;;;;;;6.33;0.80;;;14.10;67.10;;;;;;5026262;28;20069;-70
2023/04/14 10:47:48;;;;;;;4.07;0.90;;;14.00;66.70;;;;;;5026819;28;20284;-70
2023/04/14 10:50:16;;;;;;;3.03;1.00;;;14.10;67.10;;;;;;5022951;28;20347;-70
2023/04/14 10:52:55;;;;;;;4.50;0.70;;;14.30;65.80;;;;;;5023937;28;20280;-71
2023/04/14 10:55:25;;;;;;;4.23;0.90;;;14.60;62.80;;;;;;5012511;28;20280;-70
2023/04/14 10:57:53;;;;;;;5.27;0.80;;;14.90;61.70;;;;;;5028641;28;20291;-70
2023/04/14 11:00:24;;;;;;;6.13;0.80;;;15.00;59.00;;;;;;5019474;28;20320;-71
2023/04/14 11:03:06;;;;;;;4.57;0.60;;;15.20;60.90;;;;;;5006339;28;20279;-71
2023/04/14 11:05:33;;;;;;;5.33;0.70;;;15.50;61.60;;;;;;5007198;28;20280;-71
2023/04/14 11:08:00;;;;;;;6.70;1.30;;;15.60;57.50;;;;;;5027946;28;20660;-71
2023/04/14 11:10:30;;;;;;;4.03;0.90;;;15.80;58.60;;;;;;5015155;28;20343;-71
2023/04/14 11:13:05;;;;;;;5.87;1.03;;;16.00;57.10;;;;;;5016271;28;20284;-71
2023/04/14 11:15:43;;;;;;;;;;;16.10;55.30;;;;;;5032664;28;20312;-71
2023/04/14 11:18:28;;;;;;;4.20;1.27;;;15.90;52.80;;;;;;5030926;28;19917;-71
2023/04/14 11:21:07;;;;;;;7.10;1.20;;;15.80;53.00;;;;;;5025461;28;20302;-71
2023/04/14 11:23:37;;;;;;;8.13;1.33;;;15.80;54.70;;;;;;5025471;28;20707;-71
2023/04/14 11:26:08;;;;;;;5.37;1.53;;;15.70;52.50;;;;;;5014798;28;20280;-71
2023/04/14 11:28:42;;;;;;;5.90;1.60;;;15.60;54.30;;;;;;5031093;28;20284;-71
2023/04/14 11:31:10;;;;;;;4.70;1.53;;;15.50;53.80;;;;;;5015708;28;20311;-71
2023/04/14 11:33:38;;;;;;;7.23;2.37;;;15.40;54.20;;;;;;5032553;28;20306;-71
2023/04/14 11:36:06;;;;;;;7.07;1.80;;;15.50;55.00;;;;;;5018135;28;20391;-71
2023/04/14 11:38:34;;;;;;;6.47;1.30;;;15.60;54.70;;;;;;5032071;28;20276;-71
2023/04/14 11:41:01;;;;;;;6.23;1.70;;;15.50;51.90;;;;;;5030361;28;20284;-71
2023/04/14 11:43:30;;;;;;;6.00;1.47;;;15.40;53.40;;;;;;5009905;28;20369;-70
2023/04/14 11:45:57;;;;;;;4.53;1.00;;;15.40;54.40;;;;;;5023995;28;20642;-71
2023/04/14 11:48:23;;;;;;;3.80;0.93;;;15.30;52.80;;;;;;5024470;28;20291;-71
2023/04/14 11:50:49;;;;;;;7.27;1.10;;;15.20;52.80;;;;;;5019863;28;20295;-71
2023/04/14 11:53:16;;;;;;;4.67;1.13;;;15.20;51.50;;;;;;5031890;28;20044;-71
2023/04/14 11:55:45;;;;;;;3.13;0.77;;;15.20;52.80;;;;;;5021990;28;20049;-71
2023/04/14 11:58:12;;;;;;;6.60;1.00;;;15.40;51.30;;;;;;5010012;28;20355;-71
2023/04/14 12:00:39;;;;;;;4.30;1.00;;;15.50;50.40;;;;;;5030565;28;20366;-71
2023/04/14 12:03:08;;;;;;;5.00;1.30;;;15.40;49.20;;;;;;5009679;28;20287;-71
2023/04/14 12:05:35;;;;;;;5.97;0.83;;;15.30;50.10;;;;;;5026792;28;20297;-71
2023/04/14 12:08:07;;;;;;;4.90;1.20;;;15.50;51.10;;;;;;5030617;28;20284;-71
2023/04/14 12:10:33;;;;;;;5.30;1.20;;;15.50;49.70;;;;;;5026357;28;20338;-71
2023/04/14 12:13:07;;;;;;;4.17;1.10;;;15.40;50.70;;;;;;5027440;28;20291;-71
2023/04/14 12:15:37;;;;;;;7.00;1.30;;;15.20;50.40;;;;;;5026631;28;20303;-71
2023/04/14 12:18:12;;;;;;;5.93;1.30;;;15.10;52.00;;;;;;5026467;28;20367;-71
2023/04/14 12:20:55;;;;;;;7.18;2.00;;;15.20;52.90;;;;;;5033891;28;20374;-71
2023/04/14 12:23:21;;;;;;;7.23;1.77;;;15.30;49.80;;;;;;5033669;28;20346;-71
2023/04/14 12:25:50;;;;;;;6.90;1.37;;;15.20;52.50;;;;;;5024494;28;20280;-71
2023/04/14 12:28:26;;;;;;;6.53;1.10;;;15.00;50.40;;;;;;5019810;28;20291;-71
2023/04/14 12:30:54;;;;;;;4.10;1.33;;;14.80;52.00;;;;;;5033241;28;20417;-71
2023/04/14 12:33:24;;;;;;;6.60;1.07;;;14.50;50.70;;;;;;5048403;28;20573;-71
2023/04/14 12:35:50;;;;;;;5.37;1.23;;;14.40;52.60;;;;;;5017117;28;20810;-71
2023/04/14 12:38:16;;;;;;;6.17;1.50;;;14.60;53.50;;;;;;5017298;28;20291;-71
2023/04/14 12:40:44;;;;;;;4.07;1.10;;;15.00;54.00;;;;;;5033469;28;20544;-71
2023/04/14 12:43:15;;;;;;;5.73;1.60;;;15.40;53.10;;;;;;5029945;28;20144;-71
2023/04/14 12:45:47;;;;;;;5.10;1.53;;;15.70;52.80;;;;;;5031692;28;20310;-71
2023/04/14 12:48:15;;;;;;;5.83;1.43;;;15.80;50.90;;;;;;5031421;28;20341;-71
2023/04/14 12:50:41;;;;;;;7.83;1.17;;;15.60;51.10;;;;;;5037838;28;20779;-71
2023/04/14 12:53:23;;;;;;;6.87;1.47;;;15.50;51.30;;;;;;5031856;28;20283;-71